sensor_id;sensor_type;location;lat;lon;timestamp;temperature;humidity
4207;DHT22;2117;47.972;7.830;2023-04-28T00:01:13;13.90;99.90
4207;DHT22;2117;47.972;7.830;2023-04-28T00:03:39;13.90;99.90
4207;DHT22;2117;47.972;7.830;2023-04-28T00:06:04;13.90;99.90
4207;DHT22;2117;47.972;7.830;2023-04-28T00:08:30;13.90;99.90
4207;DHT22;2117;47.972;7.830;2023-04-28T00:10:56;13.90;99.90
4207;DHT22;2117;47.972;7.830;2023-04-28T00:13:22;13.90;99.90
4207;DHT22;2117;47.972;7.830;2023-04-28T00:15:51;13.90;99.90
4207;DHT22;2117;47.972;7.830;2023-04-28T00:18:18;13.90;99.90
4207;DHT22;2117;47.972;7.830;2023-04-28T00:20:43;13.90;99.90
4207;DHT22;2117;47.972;7.830;2023-04-28T00:23:09;13.80;99.90
4207;DHT22;2117;47.972;7.830;2023-04-28T00:25:35;13.80;99.90
4207;DHT22;2117;47.972;7.830;2023-04-28T00:28:00;13.90;99.90
4207;DHT22;2117;47.972;7.830;2023-04-28T00:30:26;13.90;99.90
4207;DHT22;2117;47.972;7.830;2023-04-28T00:32:52;13.90;99.90
4207;DHT22;2117;47.972;7.830;2023-04-28T00:35:17;13.90;99.90
4207;DHT22;2117;47.972;7.830;2023-04-28T00:37:43;14.00;99.90
4207;DHT22;2117;47.972;7.830;2023-04-28T00:40:09;14.00;99.90
4207;DHT22;2117;47.972;7.830;2023-04-28T00:42:35;14.00;99.90
4207;DHT22;2117;47.972;7.830;2023-04-28T00:45:01;14.00;99.90
4207;DHT22;2117;47.972;7.830;2023-04-28T00:47:34;14.00;99.90
4207;DHT22;2117;47.972;7.830;2023-04-28T00:50:01;14.00;99.90
4207;DHT22;2117;47.972;7.830;2023-04-28T00:52:27;14.00;99.90
4207;DHT22;2117;47.972;7.830;2023-04-28T00:54:54;14.00;99.90
4207;DHT22;2117;47.972;7.830;2023-04-28T00:57:21;14.00;99.90
4207;DHT22;2117;47.972;7.830;2023-04-28T00:59:47;14.00;99.90
4207;DHT22;2117;47.972;7.830;2023-04-28T01:02:13;14.00;99.90
4207;DHT22;2117;47.972;7.830;2023-04-28T01:04:43;14.00;99.90
4207;DHT22;2117;47.972;7.830;2023-04-28T01:07:09;14.00;99.90
4207;DHT22;2117;47.972;7.830;2023-04-28T01:09:36;14.00;99.90
4207;DHT22;2117;47.972;7.830;2023-04-28T01:12:01;14.00;99.90
4207;DHT22;2117;47.972;7.830;2023-04-28T01:14:27;13.90;99.90
4207;DHT22;2117;47.972;7.830;2023-04-28T01:16:53;13.80;99.90
4207;DHT22;2117;47.972;7.830;2023-04-28T01:19:20;13.80;99.90
4207;DHT22;2117;47.972;7.830;2023-04-28T01:21:47;13.80;99.90
4207;DHT22;2117;47.972;7.830;2023-04-28T01:24:12;13.80;99.90
4207;DHT22;2117;47.972;7.830;2023-04-28T01:26:38;13.70;99.90
4207;DHT22;2117;47.972;7.830;2023-04-28T01:29:03;13.60;99.90
4207;DHT22;2117;47.972;7.830;2023-04-28T01:31:29;13.60;99.90
4207;DHT22;2117;47.972;7.830;2023-04-28T01:33:55;13.50;99.90
4207;DHT22;2117;47.972;7.830;2023-04-28T01:36:21;13.50;99.90
4207;DHT22;2117;47.972;7.830;2023-04-28T01:38:48;13.40;99.90
4207;DHT22;2117;47.972;7.830;2023-04-28T01:41:14;13.30;99.90
4207;DHT22;2117;47.972;7.830;2023-04-28T01:43:39;13.30;99.90
4207;DHT22;2117;47.972;7.830;2023-04-28T01:46:05;13.30;99.90
4207;DHT22;2117;47.972;7.830;2023-04-28T01:48:31;13.20;99.90
4207;DHT22;2117;47.972;7.830;2023-04-28T01:50:56;13.20;99.90
4207;DHT22;2117;47.972;7.830;2023-04-28T01:53:22;13.20;99.90
4207;DHT22;2117;47.972;7.830;2023-04-28T01:55:47;13.10;99.90
4207;DHT22;2117;47.972;7.830;2023-04-28T01:58:13;13.00;99.90
4207;DHT22;2117;47.972;7.830;2023-04-28T02:00:38;13.00;99.90
4207;DHT22;2117;47.972;7.830;2023-04-28T02:03:04;12.90;99.90
4207;DHT22;2117;47.972;7.830;2023-04-28T02:05:30;12.80;99.90
4207;DHT22;2117;47.972;7.830;2023-04-28T02:07:56;12.80;99.90
4207;DHT22;2117;47.972;7.830;2023-04-28T02:10:22;12.80;99.90
4207;DHT22;2117;47.972;7.830;2023-04-28T02:12:47;12.70;99.90
4207;DHT22;2117;47.972;7.830;2023-04-28T02:15:13;12.70;99.90
4207;DHT22;2117;47.972;7.830;2023-04-28T02:17:38;12.70;99.90
4207;DHT22;2117;47.972;7.830;2023-04-28T02:20:04;12.60;99.90
4207;DHT22;2117;47.972;7.830;2023-04-28T02:22:30;12.60;99.90
4207;DHT22;2117;47.972;7.830;2023-04-28T02:24:56;12.60;99.90
4207;DHT22;2117;47.972;7.830;2023-04-28T02:27:22;12.60;99.90
4207;DHT22;2117;47.972;7.830;2023-04-28T02:29:47;12.50;99.90
4207;DHT22;2117;47.972;7.830;2023-04-28T02:32:13;12.60;99.90
4207;DHT22;2117;47.972;7.830;2023-04-28T02:34:39;12.50;99.90
4207;DHT22;2117;47.972;7.830;2023-04-28T02:37:04;12.50;99.90
4207;DHT22;2117;47.972;7.830;2023-04-28T02:39:30;12.50;99.90
4207;DHT22;2117;47.972;7.830;2023-04-28T02:41:57;12.50;99.90
4207;DHT22;2117;47.972;7.830;2023-04-28T02:44:23;12.50;99.90
4207;DHT22;2117;47.972;7.830;2023-04-28T02:46:49;12.50;99.90
4207;DHT22;2117;47.972;7.830;2023-04-28T02:49:15;12.60;99.90
4207;DHT22;2117;47.972;7.830;2023-04-28T02:51:40;12.50;99.90
4207;DHT22;2117;47.972;7.830;2023-04-28T02:54:06;12.60;99.90
4207;DHT22;2117;47.972;7.830;2023-04-28T02:56:32;12.60;99.90
4207;DHT22;2117;47.972;7.830;2023-04-28T02:58:58;12.60;99.90
4207;DHT22;2117;47.972;7.830;2023-04-28T03:01:24;12.60;99.90
4207;DHT22;2117;47.972;7.830;2023-04-28T03:03:51;12.70;99.90
4207;DHT22;2117;47.972;7.830;2023-04-28T03:06:16;12.60;99.90
4207;DHT22;2117;47.972;7.830;2023-04-28T03:08:42;12.60;99.90
4207;DHT22;2117;47.972;7.830;2023-04-28T03:11:07;12.60;99.90
4207;DHT22;2117;47.972;7.830;2023-04-28T03:13:33;12.70;99.90
4207;DHT22;2117;47.972;7.830;2023-04-28T03:16:00;12.60;99.90
4207;DHT22;2117;47.972;7.830;2023-04-28T03:18:26;12.70;99.90
4207;DHT22;2117;47.972;7.830;2023-04-28T03:20:51;12.70;99.90
4207;DHT22;2117;47.972;7.830;2023-04-28T03:23:17;12.70;99.90
4207;DHT22;2117;47.972;7.830;2023-04-28T03:25:42;12.70;99.90
4207;DHT22;2117;47.972;7.830;2023-04-28T03:28:08;12.70;99.90
4207;DHT22;2117;47.972;7.830;2023-04-28T03:30:34;12.80;99.90
4207;DHT22;2117;47.972;7.830;2023-04-28T03:33:00;12.70;99.90
4207;DHT22;2117;47.972;7.830;2023-04-28T03:35:26;12.70;99.90
4207;DHT22;2117;47.972;7.830;2023-04-28T03:37:52;12.70;99.90
4207;DHT22;2117;47.972;7.830;2023-04-28T03:40:17;12.70;99.90
4207;DHT22;2117;47.972;7.830;2023-04-28T03:42:43;12.70;99.90
4207;DHT22;2117;47.972;7.830;2023-04-28T03:45:09;12.70;99.90
4207;DHT22;2117;47.972;7.830;2023-04-28T03:47:35;12.60;99.90
4207;DHT22;2117;47.972;7.830;2023-04-28T03:50:01;12.70;99.90
4207;DHT22;2117;47.972;7.830;2023-04-28T03:52:26;12.70;99.90
4207;DHT22;2117;47.972;7.830;2023-04-28T03:54:52;12.70;99.90
4207;DHT22;2117;47.972;7.830;2023-04-28T03:57:17;12.70;99.90
4207;DHT22;2117;47.972;7.830;2023-04-28T03:59:43;12.70;99.90
4207;DHT22;2117;47.972;7.830;2023-04-28T04:02:09;12.70;99.90
4207;DHT22;2117;47.972;7.830;2023-04-28T04:04:34;12.70;99.90
4207;DHT22;2117;47.972;7.830;2023-04-28T04:07:00;12.70;99.90
4207;DHT22;2117;47.972;7.830;2023-04-28T04:09:26;12.70;99.90
4207;DHT22;2117;47.972;7.830;2023-04-28T04:11:52;12.70;99.90
4207;DHT22;2117;47.972;7.830;2023-04-28T04:14:17;12.80;99.90
4207;DHT22;2117;47.972;7.830;2023-04-28T04:16:43;12.80;99.90
4207;DHT22;2117;47.972;7.830;2023-04-28T04:19:09;12.80;99.90
4207;DHT22;2117;47.972;7.830;2023-04-28T04:21:34;12.90;99.90
4207;DHT22;2117;47.972;7.830;2023-04-28T04:24:00;12.80;99.90
4207;DHT22;2117;47.972;7.830;2023-04-28T04:26:25;12.90;99.90
4207;DHT22;2117;47.972;7.830;2023-04-28T04:28:51;12.80;99.90
4207;DHT22;2117;47.972;7.830;2023-04-28T04:31:17;12.80;99.90
4207;DHT22;2117;47.972;7.830;2023-04-28T04:33:44;12.90;99.90
4207;DHT22;2117;47.972;7.830;2023-04-28T04:36:09;12.90;99.90
4207;DHT22;2117;47.972;7.830;2023-04-28T04:38:35;12.90;99.90
4207;DHT22;2117;47.972;7.830;2023-04-28T04:41:00;12.90;99.90
4207;DHT22;2117;47.972;7.830;2023-04-28T04:43:26;12.90;99.90
4207;DHT22;2117;47.972;7.830;2023-04-28T04:45:51;12.90;99.90
4207;DHT22;2117;47.972;7.830;2023-04-28T04:48:17;13.00;99.90
4207;DHT22;2117;47.972;7.830;2023-04-28T04:50:43;13.00;99.90
4207;DHT22;2117;47.972;7.830;2023-04-28T04:53:08;12.90;99.90
4207;DHT22;2117;47.972;7.830;2023-04-28T04:55:34;13.00;99.90
4207;DHT22;2117;47.972;7.830;2023-04-28T04:58:00;13.00;99.90
4207;DHT22;2117;47.972;7.830;2023-04-28T05:00:25;13.00;99.90
4207;DHT22;2117;47.972;7.830;2023-04-28T05:02:51;13.00;99.90
4207;DHT22;2117;47.972;7.830;2023-04-28T05:05:17;13.00;99.90
4207;DHT22;2117;47.972;7.830;2023-04-28T05:07:42;13.00;99.90
4207;DHT22;2117;47.972;7.830;2023-04-28T05:10:08;13.10;99.90
4207;DHT22;2117;47.972;7.830;2023-04-28T05:12:36;13.10;99.90
4207;DHT22;2117;47.972;7.830;2023-04-28T05:15:02;13.10;99.90
4207;DHT22;2117;47.972;7.830;2023-04-28T05:17:28;13.10;99.90
4207;DHT22;2117;47.972;7.830;2023-04-28T05:19:53;13.10;99.90
4207;DHT22;2117;47.972;7.830;2023-04-28T05:22:19;13.20;99.90
4207;DHT22;2117;47.972;7.830;2023-04-28T05:24:44;13.20;99.90
4207;DHT22;2117;47.972;7.830;2023-04-28T05:27:10;13.20;99.90
4207;DHT22;2117;47.972;7.830;2023-04-28T05:29:36;13.20;99.90
4207;DHT22;2117;47.972;7.830;2023-04-28T05:32:01;13.20;99.90
4207;DHT22;2117;47.972;7.830;2023-04-28T05:34:27;13.20;99.90
4207;DHT22;2117;47.972;7.830;2023-04-28T05:36:52;13.20;99.90
4207;DHT22;2117;47.972;7.830;2023-04-28T05:39:18;13.30;99.90
4207;DHT22;2117;47.972;7.830;2023-04-28T05:41:44;13.30;99.90
4207;DHT22;2117;47.972;7.830;2023-04-28T05:44:09;13.30;99.90
4207;DHT22;2117;47.972;7.830;2023-04-28T05:46:35;13.30;99.90
4207;DHT22;2117;47.972;7.830;2023-04-28T05:49:01;13.30;99.90
4207;DHT22;2117;47.972;7.830;2023-04-28T05:51:27;13.30;99.90
4207;DHT22;2117;47.972;7.830;2023-04-28T05:53:53;13.30;99.90
4207;DHT22;2117;47.972;7.830;2023-04-28T05:56:19;13.30;99.90
4207;DHT22;2117;47.972;7.830;2023-04-28T05:58:44;13.30;99.90
4207;DHT22;2117;47.972;7.830;2023-04-28T06:01:11;13.30;99.90
4207;DHT22;2117;47.972;7.830;2023-04-28T06:03:36;13.30;99.90
4207;DHT22;2117;47.972;7.830;2023-04-28T06:06:02;13.30;99.90
4207;DHT22;2117;47.972;7.830;2023-04-28T06:08:28;13.40;99.90
4207;DHT22;2117;47.972;7.830;2023-04-28T06:10:53;13.40;99.90
4207;DHT22;2117;47.972;7.830;2023-04-28T06:13:19;13.40;99.90
4207;DHT22;2117;47.972;7.830;2023-04-28T06:15:45;13.40;99.90
4207;DHT22;2117;47.972;7.830;2023-04-28T06:18:10;13.40;99.90
4207;DHT22;2117;47.972;7.830;2023-04-28T06:20:36;13.40;99.90
4207;DHT22;2117;47.972;7.830;2023-04-28T06:23:01;13.40;99.90
4207;DHT22;2117;47.972;7.830;2023-04-28T06:25:28;13.40;99.90
4207;DHT22;2117;47.972;7.830;2023-04-28T06:27:53;13.40;99.90
4207;DHT22;2117;47.972;7.830;2023-04-28T06:30:21;13.40;99.90
4207;DHT22;2117;47.972;7.830;2023-04-28T06:32:47;13.40;99.90
4207;DHT22;2117;47.972;7.830;2023-04-28T06:35:14;13.40;99.90
4207;DHT22;2117;47.972;7.830;2023-04-28T06:37:39;13.30;99.90
4207;DHT22;2117;47.972;7.830;2023-04-28T06:40:06;13.40;99.90
4207;DHT22;2117;47.972;7.830;2023-04-28T06:42:32;13.30;99.90
4207;DHT22;2117;47.972;7.830;2023-04-28T06:44:58;13.30;99.90
4207;DHT22;2117;47.972;7.830;2023-04-28T06:47:23;13.30;99.90
4207;DHT22;2117;47.972;7.830;2023-04-28T06:49:49;13.30;99.90
4207;DHT22;2117;47.972;7.830;2023-04-28T06:52:16;13.30;99.90
4207;DHT22;2117;47.972;7.830;2023-04-28T06:54:41;13.30;99.90
4207;DHT22;2117;47.972;7.830;2023-04-28T06:57:07;13.30;99.90
4207;DHT22;2117;47.972;7.830;2023-04-28T06:59:33;13.20;99.90
4207;DHT22;2117;47.972;7.830;2023-04-28T07:01:59;13.10;99.90
4207;DHT22;2117;47.972;7.830;2023-04-28T07:04:25;13.10;99.90
4207;DHT22;2117;47.972;7.830;2023-04-28T07:06:51;13.10;99.90
4207;DHT22;2117;47.972;7.830;2023-04-28T07:09:17;13.00;99.90
4207;DHT22;2117;47.972;7.830;2023-04-28T07:11:43;13.00;99.90
4207;DHT22;2117;47.972;7.830;2023-04-28T07:14:09;13.00;99.90
4207;DHT22;2117;47.972;7.830;2023-04-28T07:16:35;12.90;99.90
4207;DHT22;2117;47.972;7.830;2023-04-28T07:19:01;12.90;99.90
4207;DHT22;2117;47.972;7.830;2023-04-28T07:21:26;13.00;99.90
4207;DHT22;2117;47.972;7.830;2023-04-28T07:23:53;12.90;99.90
4207;DHT22;2117;47.972;7.830;2023-04-28T07:26:21;13.00;99.90
4207;DHT22;2117;47.972;7.830;2023-04-28T07:28:47;13.00;99.90
4207;DHT22;2117;47.972;7.830;2023-04-28T07:31:13;13.00;99.90
4207;DHT22;2117;47.972;7.830;2023-04-28T07:33:38;13.00;99.90
4207;DHT22;2117;47.972;7.830;2023-04-28T07:36:04;13.10;99.90
4207;DHT22;2117;47.972;7.830;2023-04-28T07:38:30;13.10;99.90
4207;DHT22;2117;47.972;7.830;2023-04-28T07:40:55;13.10;99.90
4207;DHT22;2117;47.972;7.830;2023-04-28T07:43:21;13.10;99.90
4207;DHT22;2117;47.972;7.830;2023-04-28T07:45:47;13.20;99.90
4207;DHT22;2117;47.972;7.830;2023-04-28T07:48:14;13.20;99.90
4207;DHT22;2117;47.972;7.830;2023-04-28T07:50:40;13.30;99.90
4207;DHT22;2117;47.972;7.830;2023-04-28T07:53:06;13.30;99.90
4207;DHT22;2117;47.972;7.830;2023-04-28T07:55:31;13.30;99.90
4207;DHT22;2117;47.972;7.830;2023-04-28T07:57:57;13.40;99.90
4207;DHT22;2117;47.972;7.830;2023-04-28T08:00:23;13.40;99.90
4207;DHT22;2117;47.972;7.830;2023-04-28T08:02:49;13.50;99.90
4207;DHT22;2117;47.972;7.830;2023-04-28T08:05:15;13.50;99.90
4207;DHT22;2117;47.972;7.830;2023-04-28T08:07:42;13.60;99.90
4207;DHT22;2117;47.972;7.830;2023-04-28T08:10:09;13.60;99.90
4207;DHT22;2117;47.972;7.830;2023-04-28T08:12:35;13.70;99.90
4207;DHT22;2117;47.972;7.830;2023-04-28T08:15:00;13.60;99.90
4207;DHT22;2117;47.972;7.830;2023-04-28T08:17:26;13.70;99.90
4207;DHT22;2117;47.972;7.830;2023-04-28T08:19:51;13.70;99.90
4207;DHT22;2117;47.972;7.830;2023-04-28T08:22:17;13.70;99.90
4207;DHT22;2117;47.972;7.830;2023-04-28T08:24:42;13.70;99.90
4207;DHT22;2117;47.972;7.830;2023-04-28T08:27:08;13.70;99.90
4207;DHT22;2117;47.972;7.830;2023-04-28T08:29:34;13.70;99.90
4207;DHT22;2117;47.972;7.830;2023-04-28T08:31:59;13.80;99.90
4207;DHT22;2117;47.972;7.830;2023-04-28T08:34:29;13.80;99.90
4207;DHT22;2117;47.972;7.830;2023-04-28T08:36:54;13.80;99.90
4207;DHT22;2117;47.972;7.830;2023-04-28T08:39:20;13.80;99.90
4207;DHT22;2117;47.972;7.830;2023-04-28T08:41:47;13.80;99.90
4207;DHT22;2117;47.972;7.830;2023-04-28T08:44:13;13.80;99.90
4207;DHT22;2117;47.972;7.830;2023-04-28T08:46:43;13.80;99.90
4207;DHT22;2117;47.972;7.830;2023-04-28T08:49:14;13.80;99.90
4207;DHT22;2117;47.972;7.830;2023-04-28T08:51:51;13.80;99.90
4207;DHT22;2117;47.972;7.830;2023-04-28T08:54:20;13.80;99.90
4207;DHT22;2117;47.972;7.830;2023-04-28T08:56:47;13.80;99.90
4207;DHT22;2117;47.972;7.830;2023-04-28T08:59:14;13.80;99.90
4207;DHT22;2117;47.972;7.830;2023-04-28T09:01:39;13.80;99.90
4207;DHT22;2117;47.972;7.830;2023-04-28T09:04:06;13.90;99.90
4207;DHT22;2117;47.972;7.830;2023-04-28T09:06:36;13.90;99.90
4207;DHT22;2117;47.972;7.830;2023-04-28T09:09:22;14.00;99.90
4207;DHT22;2117;47.972;7.830;2023-04-28T09:11:59;14.00;99.90
4207;DHT22;2117;47.972;7.830;2023-04-28T09:14:29;14.10;99.90
4207;DHT22;2117;47.972;7.830;2023-04-28T09:16:56;14.10;99.90
4207;DHT22;2117;47.972;7.830;2023-04-28T09:19:22;14.00;99.90
4207;DHT22;2117;47.972;7.830;2023-04-28T09:21:56;14.10;99.90
4207;DHT22;2117;47.972;7.830;2023-04-28T09:24:27;14.10;99.90
4207;DHT22;2117;47.972;7.830;2023-04-28T09:26:52;14.20;99.90
4207;DHT22;2117;47.972;7.830;2023-04-28T09:29:18;14.30;99.90
4207;DHT22;2117;47.972;7.830;2023-04-28T09:31:43;14.30;99.90
4207;DHT22;2117;47.972;7.830;2023-04-28T09:34:09;14.30;99.90
4207;DHT22;2117;47.972;7.830;2023-04-28T09:36:36;14.30;99.90
4207;DHT22;2117;47.972;7.830;2023-04-28T09:39:02;14.40;99.90
4207;DHT22;2117;47.972;7.830;2023-04-28T09:41:42;14.50;99.90
4207;DHT22;2117;47.972;7.830;2023-04-28T09:44:15;14.40;99.90
4207;DHT22;2117;47.972;7.830;2023-04-28T09:46:42;14.50;99.90
4207;DHT22;2117;47.972;7.830;2023-04-28T09:49:09;14.50;99.90
4207;DHT22;2117;47.972;7.830;2023-04-28T09:51:35;14.50;99.90
4207;DHT22;2117;47.972;7.830;2023-04-28T09:54:01;14.60;99.90
4207;DHT22;2117;47.972;7.830;2023-04-28T09:56:28;14.60;99.90
4207;DHT22;2117;47.972;7.830;2023-04-28T09:58:56;14.70;99.90
4207;DHT22;2117;47.972;7.830;2023-04-28T10:01:30;14.80;99.90
4207;DHT22;2117;47.972;7.830;2023-04-28T10:03:57;14.80;99.90
4207;DHT22;2117;47.972;7.830;2023-04-28T10:06:24;15.00;99.90
4207;DHT22;2117;47.972;7.830;2023-04-28T10:08:50;15.00;99.90
4207;DHT22;2117;47.972;7.830;2023-04-28T10:11:16;15.00;99.90
4207;DHT22;2117;47.972;7.830;2023-04-28T10:13:42;15.00;99.90
4207;DHT22;2117;47.972;7.830;2023-04-28T10:16:09;15.00;99.90
4207;DHT22;2117;47.972;7.830;2023-04-28T10:18:36;15.00;99.90
4207;DHT22;2117;47.972;7.830;2023-04-28T10:21:03;15.00;99.90
4207;DHT22;2117;47.972;7.830;2023-04-28T10:23:45;15.00;99.90
4207;DHT22;2117;47.972;7.830;2023-04-28T10:26:13;15.00;99.90
4207;DHT22;2117;47.972;7.830;2023-04-28T10:28:46;15.10;99.90
4207;DHT22;2117;47.972;7.830;2023-04-28T10:31:14;15.10;99.90
4207;DHT22;2117;47.972;7.830;2023-04-28T10:33:40;15.10;99.90
4207;DHT22;2117;47.972;7.830;2023-04-28T10:36:06;15.10;99.90
4207;DHT22;2117;47.972;7.830;2023-04-28T10:38:36;15.30;99.90
4207;DHT22;2117;47.972;7.830;2023-04-28T10:41:33;15.30;99.90
4207;DHT22;2117;47.972;7.830;2023-04-28T10:43:58;15.40;99.90
4207;DHT22;2117;47.972;7.830;2023-04-28T10:46:24;15.40;99.90
4207;DHT22;2117;47.972;7.830;2023-04-28T10:56:17;15.70;99.90
4207;DHT22;2117;47.972;7.830;2023-04-28T10:58:48;15.90;99.90
4207;DHT22;2117;47.972;7.830;2023-04-28T11:06:21;16.20;99.90
4207;DHT22;2117;47.972;7.830;2023-04-28T11:08:51;16.40;99.90
4207;DHT22;2117;47.972;7.830;2023-04-28T11:11:19;16.60;99.90
4207;DHT22;2117;47.972;7.830;2023-04-28T11:13:46;16.80;99.90
4207;DHT22;2117;47.972;7.830;2023-04-28T11:16:17;16.90;99.90
4207;DHT22;2117;47.972;7.830;2023-04-28T11:18:54;16.80;99.90
4207;DHT22;2117;47.972;7.830;2023-04-28T11:21:21;16.80;99.90
4207;DHT22;2117;47.972;7.830;2023-04-28T11:23:48;16.80;99.90
4207;DHT22;2117;47.972;7.830;2023-04-28T11:26:14;16.80;99.90
4207;DHT22;2117;47.972;7.830;2023-04-28T11:28:53;16.90;99.90
4207;DHT22;2117;47.972;7.830;2023-04-28T11:31:21;16.90;99.90
4207;DHT22;2117;47.972;7.830;2023-04-28T11:36:34;17.00;99.90
4207;DHT22;2117;47.972;7.830;2023-04-28T11:39:01;17.00;99.90
4207;DHT22;2117;47.972;7.830;2023-04-28T11:41:30;17.10;99.90
4207;DHT22;2117;47.972;7.830;2023-04-28T11:43:56;17.10;99.90
4207;DHT22;2117;47.972;7.830;2023-04-28T11:46:23;17.30;99.90
4207;DHT22;2117;47.972;7.830;2023-04-28T11:49:03;17.30;99.90
4207;DHT22;2117;47.972;7.830;2023-04-28T11:51:29;17.30;99.90
4207;DHT22;2117;47.972;7.830;2023-04-28T11:53:56;17.40;99.90
4207;DHT22;2117;47.972;7.830;2023-04-28T11:56:22;17.80;99.90
4207;DHT22;2117;47.972;7.830;2023-04-28T11:58:59;18.10;99.90
4207;DHT22;2117;47.972;7.830;2023-04-28T12:01:25;18.40;99.90
4207;DHT22;2117;47.972;7.830;2023-04-28T12:03:51;18.80;99.90
4207;DHT22;2117;47.972;7.830;2023-04-28T12:06:17;19.20;99.90
4207;DHT22;2117;47.972;7.830;2023-04-28T12:08:43;19.40;99.90
4207;DHT22;2117;47.972;7.830;2023-04-28T12:11:10;19.70;99.90
4207;DHT22;2117;47.972;7.830;2023-04-28T12:13:37;19.90;99.90
4207;DHT22;2117;47.972;7.830;2023-04-28T12:16:04;20.10;99.90
4207;DHT22;2117;47.972;7.830;2023-04-28T12:18:34;20.10;99.90
4207;DHT22;2117;47.972;7.830;2023-04-28T12:21:01;20.10;99.90
4207;DHT22;2117;47.972;7.830;2023-04-28T12:23:34;20.10;99.90
4207;DHT22;2117;47.972;7.830;2023-04-28T12:26:01;20.00;99.90
4207;DHT22;2117;47.972;7.830;2023-04-28T12:28:37;19.90;99.90
4207;DHT22;2117;47.972;7.830;2023-04-28T12:31:05;19.70;99.90
4207;DHT22;2117;47.972;7.830;2023-04-28T12:33:31;19.90;99.90
4207;DHT22;2117;47.972;7.830;2023-04-28T12:36:02;20.00;99.90
4207;DHT22;2117;47.972;7.830;2023-04-28T12:38:28;20.10;99.90
4207;DHT22;2117;47.972;7.830;2023-04-28T12:40:54;20.30;99.90
4207;DHT22;2117;47.972;7.830;2023-04-28T12:43:19;20.30;99.90
4207;DHT22;2117;47.972;7.830;2023-04-28T12:45:48;20.30;99.90
4207;DHT22;2117;47.972;7.830;2023-04-28T12:48:14;20.20;99.90
4207;DHT22;2117;47.972;7.830;2023-04-28T12:50:39;20.00;99.90
4207;DHT22;2117;47.972;7.830;2023-04-28T12:53:05;19.70;99.90
4207;DHT22;2117;47.972;7.830;2023-04-28T12:55:30;19.60;99.90
4207;DHT22;2117;47.972;7.830;2023-04-28T12:57:56;19.70;99.90
4207;DHT22;2117;47.972;7.830;2023-04-28T13:00:22;19.90;99.90
4207;DHT22;2117;47.972;7.830;2023-04-28T13:02:49;19.90;99.90
4207;DHT22;2117;47.972;7.830;2023-04-28T13:05:15;20.00;99.90
4207;DHT22;2117;47.972;7.830;2023-04-28T13:07:41;20.00;99.90
4207;DHT22;2117;47.972;7.830;2023-04-28T13:10:07;20.00;99.90
4207;DHT22;2117;47.972;7.830;2023-04-28T13:12:33;19.90;99.90
4207;DHT22;2117;47.972;7.830;2023-04-28T13:15:02;20.00;99.90
4207;DHT22;2117;47.972;7.830;2023-04-28T13:17:28;20.10;99.90
4207;DHT22;2117;47.972;7.830;2023-04-28T13:19:54;20.00;99.90
4207;DHT22;2117;47.972;7.830;2023-04-28T13:22:20;20.10;99.90
4207;DHT22;2117;47.972;7.830;2023-04-28T13:24:46;20.50;99.90
4207;DHT22;2117;47.972;7.830;2023-04-28T13:27:12;20.90;99.90
4207;DHT22;2117;47.972;7.830;2023-04-28T13:29:38;21.30;99.90
4207;DHT22;2117;47.972;7.830;2023-04-28T13:32:04;21.30;99.90
4207;DHT22;2117;47.972;7.830;2023-04-28T13:34:30;21.60;99.90
4207;DHT22;2117;47.972;7.830;2023-04-28T13:36:56;22.10;99.90
4207;DHT22;2117;47.972;7.830;2023-04-28T13:39:22;22.30;99.90
4207;DHT22;2117;47.972;7.830;2023-04-28T13:41:48;22.20;99.90
4207;DHT22;2117;47.972;7.830;2023-04-28T13:44:14;22.20;99.90
4207;DHT22;2117;47.972;7.830;2023-04-28T13:46:40;22.70;99.90
4207;DHT22;2117;47.972;7.830;2023-04-28T13:49:09;23.00;99.90
4207;DHT22;2117;47.972;7.830;2023-04-28T13:51:35;23.30;99.90
4207;DHT22;2117;47.972;7.830;2023-04-28T13:54:00;23.20;99.90
4207;DHT22;2117;47.972;7.830;2023-04-28T13:56:30;23.40;99.90
4207;DHT22;2117;47.972;7.830;2023-04-28T13:58:56;23.50;99.90
4207;DHT22;2117;47.972;7.830;2023-04-28T14:01:23;23.40;99.90
4207;DHT22;2117;47.972;7.830;2023-04-28T14:03:49;23.60;99.90
4207;DHT22;2117;47.972;7.830;2023-04-28T14:06:15;23.60;99.90
4207;DHT22;2117;47.972;7.830;2023-04-28T14:08:41;23.50;99.90
4207;DHT22;2117;47.972;7.830;2023-04-28T14:11:06;23.20;99.90
4207;DHT22;2117;47.972;7.830;2023-04-28T14:13:32;23.20;99.90
4207;DHT22;2117;47.972;7.830;2023-04-28T14:15:58;23.10;99.90
4207;DHT22;2117;47.972;7.830;2023-04-28T14:18:23;22.70;99.90
4207;DHT22;2117;47.972;7.830;2023-04-28T14:20:49;22.50;99.90
4207;DHT22;2117;47.972;7.830;2023-04-28T14:23:15;22.30;99.90
4207;DHT22;2117;47.972;7.830;2023-04-28T14:25:41;22.10;99.90
4207;DHT22;2117;47.972;7.830;2023-04-28T14:28:07;22.00;99.90
4207;DHT22;2117;47.972;7.830;2023-04-28T14:30:33;21.80;99.90
4207;DHT22;2117;47.972;7.830;2023-04-28T14:32:58;21.70;99.90
4207;DHT22;2117;47.972;7.830;2023-04-28T14:35:24;21.40;99.90
4207;DHT22;2117;47.972;7.830;2023-04-28T14:37:51;21.20;99.90
4207;DHT22;2117;47.972;7.830;2023-04-28T14:40:17;21.00;99.90
4207;DHT22;2117;47.972;7.830;2023-04-28T14:42:43;21.00;99.90
4207;DHT22;2117;47.972;7.830;2023-04-28T14:45:09;20.90;99.90
4207;DHT22;2117;47.972;7.830;2023-04-28T14:47:36;20.80;99.90
4207;DHT22;2117;47.972;7.830;2023-04-28T14:50:03;20.80;99.90
4207;DHT22;2117;47.972;7.830;2023-04-28T14:52:29;20.90;99.90
4207;DHT22;2117;47.972;7.830;2023-04-28T14:54:57;21.00;99.90
4207;DHT22;2117;47.972;7.830;2023-04-28T14:57:26;21.10;99.90
4207;DHT22;2117;47.972;7.830;2023-04-28T14:59:52;21.10;99.90
4207;DHT22;2117;47.972;7.830;2023-04-28T15:02:18;21.10;99.90
4207;DHT22;2117;47.972;7.830;2023-04-28T15:04:46;21.20;99.90
4207;DHT22;2117;47.972;7.830;2023-04-28T15:07:12;21.20;99.90
4207;DHT22;2117;47.972;7.830;2023-04-28T15:09:38;21.00;99.90
4207;DHT22;2117;47.972;7.830;2023-04-28T15:12:04;21.00;99.90
4207;DHT22;2117;47.972;7.830;2023-04-28T15:14:30;20.90;99.90
4207;DHT22;2117;47.972;7.830;2023-04-28T15:16:56;20.80;99.90
4207;DHT22;2117;47.972;7.830;2023-04-28T15:19:22;20.80;99.90
4207;DHT22;2117;47.972;7.830;2023-04-28T15:21:48;20.70;99.90
4207;DHT22;2117;47.972;7.830;2023-04-28T15:24:15;20.50;99.90
4207;DHT22;2117;47.972;7.830;2023-04-28T15:26:40;20.40;99.90
4207;DHT22;2117;47.972;7.830;2023-04-28T15:29:07;20.30;99.90
4207;DHT22;2117;47.972;7.830;2023-04-28T15:31:33;20.30;99.90
4207;DHT22;2117;47.972;7.830;2023-04-28T15:33:59;20.30;99.90
4207;DHT22;2117;47.972;7.830;2023-04-28T15:36:24;20.30;99.90
4207;DHT22;2117;47.972;7.830;2023-04-28T15:38:51;20.20;99.90
4207;DHT22;2117;47.972;7.830;2023-04-28T15:41:17;20.20;99.90
4207;DHT22;2117;47.972;7.830;2023-04-28T15:43:43;20.20;99.90
4207;DHT22;2117;47.972;7.830;2023-04-28T15:46:12;20.10;99.90
4207;DHT22;2117;47.972;7.830;2023-04-28T15:48:39;20.10;99.90
4207;DHT22;2117;47.972;7.830;2023-04-28T15:51:05;20.00;99.90
4207;DHT22;2117;47.972;7.830;2023-04-28T15:53:31;19.80;99.90
4207;DHT22;2117;47.972;7.830;2023-04-28T15:55:57;19.70;99.90
4207;DHT22;2117;47.972;7.830;2023-04-28T15:58:23;19.70;99.90
4207;DHT22;2117;47.972;7.830;2023-04-28T16:00:49;19.60;99.90
4207;DHT22;2117;47.972;7.830;2023-04-28T16:03:16;19.50;99.90
4207;DHT22;2117;47.972;7.830;2023-04-28T16:05:41;19.50;99.90
4207;DHT22;2117;47.972;7.830;2023-04-28T16:08:07;19.50;99.90
4207;DHT22;2117;47.972;7.830;2023-04-28T16:10:33;19.40;99.90
4207;DHT22;2117;47.972;7.830;2023-04-28T16:12:58;19.40;99.90